sensor_id;sensor_type;location;lat;lon;timestamp;P1;durP1;ratioP1;P2;durP2;ratioP2
53479;SDS011;56133;51.012;-1.648;2022-08-21T00:01:43;10.70;;;2.85;;
53479;SDS011;56133;51.012;-1.648;2022-08-21T00:04:09;13.63;;;3.17;;
53479;SDS011;56133;51.012;-1.648;2022-08-21T00:06:36;11.55;;;2.85;;
53479;SDS011;56133;51.012;-1.648;2022-08-21T00:09:03;19.35;;;3.45;;
53479;SDS011;56133;51.012;-1.648;2022-08-21T00:11:31;12.93;;;2.90;;
53479;SDS011;56133;51.012;-1.648;2022-08-21T00:13:57;11.57;;;2.92;;
53479;SDS011;56133;51.012;-1.648;2022-08-21T00:16:22;14.35;;;2.97;;
53479;SDS011;56133;51.012;-1.648;2022-08-21T00:18:48;14.35;;;3.00;;
53479;SDS011;56133;51.012;-1.648;2022-08-21T00:21:14;20.88;;;3.78;;
53479;SDS011;56133;51.012;-1.648;2022-08-21T00:23:41;16.13;;;3.13;;
53479;SDS011;56133;51.012;-1.648;2022-08-21T00:26:07;20.30;;;3.13;;
53479;SDS011;56133;51.012;-1.648;2022-08-21T00:28:32;16.92;;;3.63;;
53479;SDS011;56133;51.012;-1.648;2022-08-21T00:30:58;16.67;;;3.22;;
53479;SDS011;56133;51.012;-1.648;2022-08-21T00:33:24;15.88;;;3.17;;
53479;SDS011;56133;51.012;-1.648;2022-08-21T00:35:51;12.60;;;2.88;;
53479;SDS011;56133;51.012;-1.648;2022-08-21T00:38:17;12.48;;;3.25;;
53479;SDS011;56133;51.012;-1.648;2022-08-21T00:40:45;14.18;;;2.97;;
53479;SDS011;56133;51.012;-1.648;2022-08-21T00:43:15;17.85;;;3.10;;
53479;SDS011;56133;51.012;-1.648;2022-08-21T00:45:42;19.55;;;3.00;;
53479;SDS011;56133;51.012;-1.648;2022-08-21T00:48:07;16.05;;;3.08;;
53479;SDS011;56133;51.012;-1.648;2022-08-21T00:50:34;14.57;;;3.13;;
53479;SDS011;56133;51.012;-1.648;2022-08-21T00:53:02;12.13;;;3.03;;
53479;SDS011;56133;51.012;-1.648;2022-08-21T00:55:30;13.23;;;3.60;;
53479;SDS011;56133;51.012;-1.648;2022-08-21T00:57:57;12.38;;;2.90;;
53479;SDS011;56133;51.012;-1.648;2022-08-21T01:00:26;13.93;;;3.47;;
53479;SDS011;56133;51.012;-1.648;2022-08-21T01:02:58;13.60;;;3.72;;
53479;SDS011;56133;51.012;-1.648;2022-08-21T01:05:25;19.27;;;3.58;;
53479;SDS011;56133;51.012;-1.648;2022-08-21T01:07:52;13.93;;;3.13;;
53479;SDS011;56133;51.012;-1.648;2022-08-21T01:10:19;15.15;;;3.20;;
53479;SDS011;56133;51.012;-1.648;2022-08-21T01:12:45;14.05;;;3.40;;
53479;SDS011;56133;51.012;-1.648;2022-08-21T01:15:10;15.90;;;3.67;;
53479;SDS011;56133;51.012;-1.648;2022-08-21T01:17:39;16.02;;;3.58;;
53479;SDS011;56133;51.012;-1.648;2022-08-21T01:20:06;12.52;;;3.20;;
53479;SDS011;56133;51.012;-1.648;2022-08-21T01:22:34;12.57;;;2.88;;
53479;SDS011;56133;51.012;-1.648;2022-08-21T01:25:00;14.23;;;3.33;;
53479;SDS011;56133;51.012;-1.648;2022-08-21T01:27:27;12.07;;;3.58;;
53479;SDS011;56133;51.012;-1.648;2022-08-21T01:29:55;14.93;;;3.55;;
53479;SDS011;56133;51.012;-1.648;2022-08-21T01:32:24;10.13;;;3.25;;
53479;SDS011;56133;51.012;-1.648;2022-08-21T01:34:50;18.95;;;3.90;;
53479;SDS011;56133;51.012;-1.648;2022-08-21T01:37:16;16.35;;;3.90;;
53479;SDS011;56133;51.012;-1.648;2022-08-21T01:39:43;12.70;;;3.22;;
53479;SDS011;56133;51.012;-1.648;2022-08-21T01:42:09;16.63;;;3.63;;
53479;SDS011;56133;51.012;-1.648;2022-08-21T01:44:35;15.70;;;3.53;;
53479;SDS011;56133;51.012;-1.648;2022-08-21T01:47:03;16.60;;;3.50;;
53479;SDS011;56133;51.012;-1.648;2022-08-21T01:49:32;11.80;;;3.22;;
53479;SDS011;56133;51.012;-1.648;2022-08-21T01:51:58;17.08;;;4.05;;
53479;SDS011;56133;51.012;-1.648;2022-08-21T01:54:23;18.10;;;4.30;;
53479;SDS011;56133;51.012;-1.648;2022-08-21T01:56:50;12.90;;;3.53;;
53479;SDS011;56133;51.012;-1.648;2022-08-21T01:59:17;9.38;;;3.13;;
53479;SDS011;56133;51.012;-1.648;2022-08-21T02:01:42;21.08;;;4.20;;
53479;SDS011;56133;51.012;-1.648;2022-08-21T02:04:08;15.88;;;3.78;;
53479;SDS011;56133;51.012;-1.648;2022-08-21T02:06:35;12.82;;;3.20;;
53479;SDS011;56133;51.012;-1.648;2022-08-21T02:09:05;19.38;;;4.35;;
53479;SDS011;56133;51.012;-1.648;2022-08-21T02:11:32;13.10;;;3.75;;
53479;SDS011;56133;51.012;-1.648;2022-08-21T02:13:58;11.93;;;3.88;;
53479;SDS011;56133;51.012;-1.648;2022-08-21T02:16:23;16.85;;;4.32;;
53479;SDS011;56133;51.012;-1.648;2022-08-21T02:18:49;16.13;;;4.28;;
53479;SDS011;56133;51.012;-1.648;2022-08-21T02:21:14;12.13;;;3.50;;
53479;SDS011;56133;51.012;-1.648;2022-08-21T02:23:39;15.75;;;3.72;;
53479;SDS011;56133;51.012;-1.648;2022-08-21T02:26:06;16.90;;;3.63;;
53479;SDS011;56133;51.012;-1.648;2022-08-21T02:28:32;13.00;;;4.03;;
53479;SDS011;56133;51.012;-1.648;2022-08-21T02:30:57;19.25;;;3.90;;
53479;SDS011;56133;51.012;-1.648;2022-08-21T02:33:25;12.00;;;3.40;;
53479;SDS011;56133;51.012;-1.648;2022-08-21T02:35:52;13.05;;;3.38;;
53479;SDS011;56133;51.012;-1.648;2022-08-21T02:38:22;14.98;;;3.70;;
53479;SDS011;56133;51.012;-1.648;2022-08-21T02:40:51;13.30;;;3.40;;
53479;SDS011;56133;51.012;-1.648;2022-08-21T02:43:18;14.90;;;3.40;;
53479;SDS011;56133;51.012;-1.648;2022-08-21T02:45:45;14.50;;;3.20;;
53479;SDS011;56133;51.012;-1.648;2022-08-21T02:48:12;10.73;;;3.28;;
53479;SDS011;56133;51.012;-1.648;2022-08-21T02:50:41;11.65;;;3.08;;
53479;SDS011;56133;51.012;-1.648;2022-08-21T02:53:10;11.20;;;3.45;;
53479;SDS011;56133;51.012;-1.648;2022-08-21T02:55:41;12.15;;;3.92;;
53479;SDS011;56133;51.012;-1.648;2022-08-21T02:58:09;13.52;;;3.38;;
53479;SDS011;56133;51.012;-1.648;2022-08-21T03:00:36;14.73;;;3.47;;
53479;SDS011;56133;51.012;-1.648;2022-08-21T03:03:02;14.35;;;4.20;;
53479;SDS011;56133;51.012;-1.648;2022-08-21T03:05:28;11.38;;;3.33;;
53479;SDS011;56133;51.012;-1.648;2022-08-21T03:07:59;16.85;;;3.92;;
53479;SDS011;56133;51.012;-1.648;2022-08-21T03:10:25;16.55;;;3.92;;
53479;SDS011;56133;51.012;-1.648;2022-08-21T03:12:52;15.18;;;3.50;;
53479;SDS011;56133;51.012;-1.648;2022-08-21T03:15:20;15.10;;;3.38;;
53479;SDS011;56133;51.012;-1.648;2022-08-21T03:17:48;13.63;;;3.95;;
53479;SDS011;56133;51.012;-1.648;2022-08-21T03:20:17;12.98;;;3.45;;
53479;SDS011;56133;51.012;-1.648;2022-08-21T03:22:47;14.00;;;3.40;;
53479;SDS011;56133;51.012;-1.648;2022-08-21T03:25:13;13.15;;;3.92;;
53479;SDS011;56133;51.012;-1.648;2022-08-21T03:27:38;11.15;;;3.17;;
53479;SDS011;56133;51.012;-1.648;2022-08-21T03:30:05;13.48;;;3.80;;
53479;SDS011;56133;51.012;-1.648;2022-08-21T03:32:31;10.73;;;3.30;;
53479;SDS011;56133;51.012;-1.648;2022-08-21T03:34:57;11.25;;;3.28;;
53479;SDS011;56133;51.012;-1.648;2022-08-21T03:37:25;10.02;;;3.30;;
53479;SDS011;56133;51.012;-1.648;2022-08-21T03:39:51;11.68;;;3.67;;
53479;SDS011;56133;51.012;-1.648;2022-08-21T03:42:17;9.27;;;3.10;;
53479;SDS011;56133;51.012;-1.648;2022-08-21T03:44:42;10.30;;;3.60;;
53479;SDS011;56133;51.012;-1.648;2022-08-21T03:47:08;8.07;;;2.90;;
53479;SDS011;56133;51.012;-1.648;2022-08-21T03:49:34;11.57;;;3.33;;
53479;SDS011;56133;51.012;-1.648;2022-08-21T03:52:00;11.88;;;3.75;;
53479;SDS011;56133;51.012;-1.648;2022-08-21T03:54:25;15.93;;;4.30;;
53479;SDS011;56133;51.012;-1.648;2022-08-21T03:56:51;14.70;;;4.55;;
53479;SDS011;56133;51.012;-1.648;2022-08-21T03:59:16;13.18;;;4.10;;
53479;SDS011;56133;51.012;-1.648;2022-08-21T04:01:55;16.20;;;3.63;;
53479;SDS011;56133;51.012;-1.648;2022-08-21T04:04:26;16.75;;;4.57;;
53479;SDS011;56133;51.012;-1.648;2022-08-21T04:06:53;15.27;;;3.40;;
53479;SDS011;56133;51.012;-1.648;2022-08-21T04:09:20;14.98;;;3.65;;
53479;SDS011;56133;51.012;-1.648;2022-08-21T04:11:46;13.00;;;3.72;;
53479;SDS011;56133;51.012;-1.648;2022-08-21T04:14:12;10.90;;;3.30;;
53479;SDS011;56133;51.012;-1.648;2022-08-21T04:16:38;13.63;;;3.72;;
53479;SDS011;56133;51.012;-1.648;2022-08-21T04:19:04;13.65;;;3.50;;
53479;SDS011;56133;51.012;-1.648;2022-08-21T04:21:29;11.40;;;3.60;;
53479;SDS011;56133;51.012;-1.648;2022-08-21T04:23:56;10.45;;;3.28;;
53479;SDS011;56133;51.012;-1.648;2022-08-21T04:26:21;11.57;;;3.13;;
53479;SDS011;56133;51.012;-1.648;2022-08-21T04:28:47;10.68;;;3.70;;
53479;SDS011;56133;51.012;-1.648;2022-08-21T04:31:13;12.27;;;3.70;;
53479;SDS011;56133;51.012;-1.648;2022-08-21T04:33:38;11.60;;;3.75;;
53479;SDS011;56133;51.012;-1.648;2022-08-21T04:36:04;10.68;;;3.05;;
53479;SDS011;56133;51.012;-1.648;2022-08-21T04:38:31;8.10;;;3.15;;
53479;SDS011;56133;51.012;-1.648;2022-08-21T04:40:57;8.63;;;2.90;;
53479;SDS011;56133;51.012;-1.648;2022-08-21T04:43:23;7.88;;;3.13;;
53479;SDS011;56133;51.012;-1.648;2022-08-21T04:45:48;7.88;;;2.90;;
53479;SDS011;56133;51.012;-1.648;2022-08-21T04:48:16;9.13;;;2.78;;
53479;SDS011;56133;51.012;-1.648;2022-08-21T04:55:53;11.23;;;3.45;;
53479;SDS011;56133;51.012;-1.648;2022-08-21T04:58:21;15.07;;;3.75;;
53479;SDS011;56133;51.012;-1.648;2022-08-21T05:00:51;11.68;;;3.28;;
53479;SDS011;56133;51.012;-1.648;2022-08-21T05:03:18;11.82;;;3.90;;
53479;SDS011;56133;51.012;-1.648;2022-08-21T05:05:44;11.98;;;3.72;;
53479;SDS011;56133;51.012;-1.648;2022-08-21T05:08:11;10.30;;;3.35;;
53479;SDS011;56133;51.012;-1.648;2022-08-21T05:10:40;10.35;;;3.88;;
53479;SDS011;56133;51.012;-1.648;2022-08-21T05:13:07;10.15;;;3.38;;
53479;SDS011;56133;51.012;-1.648;2022-08-21T05:15:32;11.10;;;3.42;;
53479;SDS011;56133;51.012;-1.648;2022-08-21T05:17:57;9.48;;;3.72;;
53479;SDS011;56133;51.012;-1.648;2022-08-21T05:20:23;10.43;;;3.75;;
53479;SDS011;56133;51.012;-1.648;2022-08-21T05:22:48;12.02;;;3.28;;
53479;SDS011;56133;51.012;-1.648;2022-08-21T05:25:14;13.68;;;3.70;;
53479;SDS011;56133;51.012;-1.648;2022-08-21T05:27:39;10.32;;;3.50;;
53479;SDS011;56133;51.012;-1.648;2022-08-21T05:30:06;11.10;;;3.70;;
53479;SDS011;56133;51.012;-1.648;2022-08-21T05:32:34;11.52;;;3.45;;
53479;SDS011;56133;51.012;-1.648;2022-08-21T05:35:00;11.98;;;3.47;;
53479;SDS011;56133;51.012;-1.648;2022-08-21T05:37:26;11.57;;;3.50;;
53479;SDS011;56133;51.012;-1.648;2022-08-21T05:39:51;9.57;;;3.33;;
53479;SDS011;56133;51.012;-1.648;2022-08-21T05:42:17;8.20;;;3.30;;
53479;SDS011;56133;51.012;-1.648;2022-08-21T05:44:42;14.50;;;3.58;;
53479;SDS011;56133;51.012;-1.648;2022-08-21T05:47:09;11.88;;;3.78;;
53479;SDS011;56133;51.012;-1.648;2022-08-21T05:49:35;14.38;;;3.45;;
53479;SDS011;56133;51.012;-1.648;2022-08-21T05:52:01;13.23;;;3.55;;
53479;SDS011;56133;51.012;-1.648;2022-08-21T05:54:28;12.18;;;3.40;;
53479;SDS011;56133;51.012;-1.648;2022-08-21T05:56:54;10.93;;;3.20;;
53479;SDS011;56133;51.012;-1.648;2022-08-21T05:59:20;10.82;;;3.00;;
53479;SDS011;56133;51.012;-1.648;2022-08-21T06:01:46;11.38;;;3.20;;
53479;SDS011;56133;51.012;-1.648;2022-08-21T06:04:11;7.65;;;2.80;;
53479;SDS011;56133;51.012;-1.648;2022-08-21T06:06:37;11.18;;;3.08;;
53479;SDS011;56133;51.012;-1.648;2022-08-21T06:09:03;12.20;;;3.30;;
53479;SDS011;56133;51.012;-1.648;2022-08-21T06:11:30;11.80;;;3.33;;
53479;SDS011;56133;51.012;-1.648;2022-08-21T06:13:56;10.45;;;3.00;;
53479;SDS011;56133;51.012;-1.648;2022-08-21T06:16:22;13.98;;;3.63;;
53479;SDS011;56133;51.012;-1.648;2022-08-21T06:18:48;13.23;;;3.13;;
53479;SDS011;56133;51.012;-1.648;2022-08-21T06:21:14;12.30;;;3.03;;
53479;SDS011;56133;51.012;-1.648;2022-08-21T06:23:40;13.90;;;3.33;;
53479;SDS011;56133;51.012;-1.648;2022-08-21T06:26:06;16.80;;;3.75;;
53479;SDS011;56133;51.012;-1.648;2022-08-21T06:28:32;13.52;;;3.00;;
53479;SDS011;56133;51.012;-1.648;2022-08-21T06:30:58;12.77;;;3.10;;
53479;SDS011;56133;51.012;-1.648;2022-08-21T06:33:24;12.68;;;2.83;;
53479;SDS011;56133;51.012;-1.648;2022-08-21T06:35:50;11.35;;;3.17;;
53479;SDS011;56133;51.012;-1.648;2022-08-21T06:38:15;13.95;;;3.10;;
53479;SDS011;56133;51.012;-1.648;2022-08-21T06:40:41;11.93;;;3.00;;
53479;SDS011;56133;51.012;-1.648;2022-08-21T06:43:08;13.35;;;3.00;;
53479;SDS011;56133;51.012;-1.648;2022-08-21T06:45:35;15.32;;;3.00;;
53479;SDS011;56133;51.012;-1.648;2022-08-21T06:48:01;18.15;;;3.22;;
53479;SDS011;56133;51.012;-1.648;2022-08-21T06:50:27;10.90;;;2.95;;
53479;SDS011;56133;51.012;-1.648;2022-08-21T06:53:04;13.30;;;2.92;;
53479;SDS011;56133;51.012;-1.648;2022-08-21T06:55:31;12.35;;;2.78;;
53479;SDS011;56133;51.012;-1.648;2022-08-21T06:57:58;8.73;;;2.90;;
53479;SDS011;56133;51.012;-1.648;2022-08-21T07:00:24;10.05;;;3.33;;
53479;SDS011;56133;51.012;-1.648;2022-08-21T07:02:50;8.82;;;3.00;;
53479;SDS011;56133;51.012;-1.648;2022-08-21T07:05:15;7.60;;;2.58;;
53479;SDS011;56133;51.012;-1.648;2022-08-21T07:07:42;11.90;;;3.17;;
53479;SDS011;56133;51.012;-1.648;2022-08-21T07:10:07;7.55;;;2.58;;
53479;SDS011;56133;51.012;-1.648;2022-08-21T07:12:33;10.00;;;3.05;;
53479;SDS011;56133;51.012;-1.648;2022-08-21T07:14:58;12.02;;;3.00;;
53479;SDS011;56133;51.012;-1.648;2022-08-21T07:17:24;12.57;;;3.22;;
53479;SDS011;56133;51.012;-1.648;2022-08-21T07:19:49;12.68;;;2.97;;
53479;SDS011;56133;51.012;-1.648;2022-08-21T07:22:16;11.07;;;2.95;;
53479;SDS011;56133;51.012;-1.648;2022-08-21T07:24:46;10.45;;;3.10;;
53479;SDS011;56133;51.012;-1.648;2022-08-21T07:27:11;12.77;;;3.00;;
53479;SDS011;56133;51.012;-1.648;2022-08-21T07:29:37;13.45;;;3.50;;
53479;SDS011;56133;51.012;-1.648;2022-08-21T07:32:03;11.73;;;2.80;;
53479;SDS011;56133;51.012;-1.648;2022-08-21T07:34:29;9.77;;;2.75;;
53479;SDS011;56133;51.012;-1.648;2022-08-21T07:36:55;10.52;;;3.08;;
53479;SDS011;56133;51.012;-1.648;2022-08-21T07:39:20;9.18;;;3.15;;
53479;SDS011;56133;51.012;-1.648;2022-08-21T07:41:46;9.90;;;2.90;;
53479;SDS011;56133;51.012;-1.648;2022-08-21T07:44:11;10.05;;;3.03;;
53479;SDS011;56133;51.012;-1.648;2022-08-21T07:46:36;12.77;;;2.58;;
53479;SDS011;56133;51.012;-1.648;2022-08-21T07:49:02;11.88;;;2.92;;
53479;SDS011;56133;51.012;-1.648;2022-08-21T07:51:28;8.48;;;2.85;;
53479;SDS011;56133;51.012;-1.648;2022-08-21T07:53:54;9.57;;;2.80;;
53479;SDS011;56133;51.012;-1.648;2022-08-21T07:56:22;7.80;;;2.50;;
53479;SDS011;56133;51.012;-1.648;2022-08-21T07:58:47;11.25;;;3.00;;
53479;SDS011;56133;51.012;-1.648;2022-08-21T08:01:13;10.82;;;2.80;;
53479;SDS011;56133;51.012;-1.648;2022-08-21T08:03:39;11.50;;;3.28;;
53479;SDS011;56133;51.012;-1.648;2022-08-21T08:06:06;8.00;;;2.80;;
53479;SDS011;56133;51.012;-1.648;2022-08-21T08:08:33;8.10;;;3.17;;
53479;SDS011;56133;51.012;-1.648;2022-08-21T08:10:59;11.23;;;2.42;;
53479;SDS011;56133;51.012;-1.648;2022-08-21T08:13:26;6.35;;;2.25;;
53479;SDS011;56133;51.012;-1.648;2022-08-21T08:15:52;9.77;;;2.72;;
53479;SDS011;56133;51.012;-1.648;2022-08-21T08:18:18;9.52;;;2.40;;
53479;SDS011;56133;51.012;-1.648;2022-08-21T08:20:43;9.10;;;2.00;;
53479;SDS011;56133;51.012;-1.648;2022-08-21T08:23:10;10.23;;;2.35;;
53479;SDS011;56133;51.012;-1.648;2022-08-21T08:25:36;9.57;;;2.30;;
53479;SDS011;56133;51.012;-1.648;2022-08-21T08:28:01;12.60;;;2.42;;
53479;SDS011;56133;51.012;-1.648;2022-08-21T08:30:28;12.75;;;2.28;;
53479;SDS011;56133;51.012;-1.648;2022-08-21T08:32:53;11.63;;;2.50;;
53479;SDS011;56133;51.012;-1.648;2022-08-21T08:35:18;10.55;;;2.10;;
53479;SDS011;56133;51.012;-1.648;2022-08-21T08:37:44;10.00;;;1.98;;
53479;SDS011;56133;51.012;-1.648;2022-08-21T08:40:32;14.43;;;2.45;;
53479;SDS011;56133;51.012;-1.648;2022-08-21T08:43:00;10.65;;;2.20;;
53479;SDS011;56133;51.012;-1.648;2022-08-21T08:45:26;11.20;;;2.08;;
53479;SDS011;56133;51.012;-1.648;2022-08-21T08:47:56;8.55;;;1.58;;
53479;SDS011;56133;51.012;-1.648;2022-08-21T08:53:20;7.28;;;1.60;;
53479;SDS011;56133;51.012;-1.648;2022-08-21T08:55:51;12.70;;;2.13;;
53479;SDS011;56133;51.012;-1.648;2022-08-21T08:58:22;10.70;;;1.90;;
53479;SDS011;56133;51.012;-1.648;2022-08-21T09:00:55;7.55;;;1.77;;
53479;SDS011;56133;51.012;-1.648;2022-08-21T09:03:22;10.35;;;2.03;;
53479;SDS011;56133;51.012;-1.648;2022-08-21T09:08:34;11.15;;;2.08;;
53479;SDS011;56133;51.012;-1.648;2022-08-21T09:11:26;9.27;;;1.90;;
53479;SDS011;56133;51.012;-1.648;2022-08-21T09:16:41;10.25;;;1.95;;
53479;SDS011;56133;51.012;-1.648;2022-08-21T09:21:48;9.10;;;1.80;;
53479;SDS011;56133;51.012;-1.648;2022-08-21T09:27:06;10.30;;;1.70;;
53479;SDS011;56133;51.012;-1.648;2022-08-21T09:29:35;13.48;;;1.60;;
53479;SDS011;56133;51.012;-1.648;2022-08-21T09:32:03;7.28;;;1.90;;
53479;SDS011;56133;51.012;-1.648;2022-08-21T09:34:39;6.75;;;1.30;;
53479;SDS011;56133;51.012;-1.648;2022-08-21T09:37:05;10.07;;;1.75;;
53479;SDS011;56133;51.012;-1.648;2022-08-21T09:39:42;6.50;;;1.10;;
53479;SDS011;56133;51.012;-1.648;2022-08-21T09:42:09;8.52;;;1.50;;
53479;SDS011;56133;51.012;-1.648;2022-08-21T09:44:36;9.05;;;1.45;;
53479;SDS011;56133;51.012;-1.648;2022-08-21T09:47:06;8.70;;;1.85;;
53479;SDS011;56133;51.012;-1.648;2022-08-21T09:49:36;10.68;;;1.80;;
53479;SDS011;56133;51.012;-1.648;2022-08-21T09:52:03;6.68;;;1.70;;
53479;SDS011;56133;51.012;-1.648;2022-08-21T09:54:40;5.68;;;1.25;;
53479;SDS011;56133;51.012;-1.648;2022-08-21T09:59:53;7.18;;;1.55;;
53479;SDS011;56133;51.012;-1.648;2022-08-21T10:04:57;8.10;;;1.40;;
53479;SDS011;56133;51.012;-1.648;2022-08-21T10:07:29;8.13;;;1.58;;
53479;SDS011;56133;51.012;-1.648;2022-08-21T10:10:03;6.03;;;1.27;;
53479;SDS011;56133;51.012;-1.648;2022-08-21T10:12:49;10.02;;;2.25;;
53479;SDS011;56133;51.012;-1.648;2022-08-21T10:15:23;7.07;;;2.05;;
53479;SDS011;56133;51.012;-1.648;2022-08-21T10:18:07;9.25;;;2.10;;
53479;SDS011;56133;51.012;-1.648;2022-08-21T10:20:50;8.00;;;1.30;;
53479;SDS011;56133;51.012;-1.648;2022-08-21T10:40:23;9.63;;;1.50;;
53479;SDS011;56133;51.012;-1.648;2022-08-21T10:48:02;6.82;;;1.17;;
53479;SDS011;56133;51.012;-1.648;2022-08-21T10:50:38;5.32;;;1.27;;
53479;SDS011;56133;51.012;-1.648;2022-08-21T10:53:12;7.53;;;1.50;;
53479;SDS011;56133;51.012;-1.648;2022-08-21T10:58:44;8.38;;;1.92;;
53479;SDS011;56133;51.012;-1.648;2022-08-21T11:01:32;5.65;;;1.25;;
53479;SDS011;56133;51.012;-1.648;2022-08-21T11:04:20;5.97;;;1.60;;
53479;SDS011;56133;51.012;-1.648;2022-08-21T11:07:15;5.55;;;1.38;;
53479;SDS011;56133;51.012;-1.648;2022-08-21T11:09:45;9.30;;;1.70;;
53479;SDS011;56133;51.012;-1.648;2022-08-21T11:12:24;7.25;;;1.48;;
53479;SDS011;56133;51.012;-1.648;2022-08-21T11:15:04;7.45;;;1.50;;
53479;SDS011;56133;51.012;-1.648;2022-08-21T11:17:45;6.25;;;1.58;;
53479;SDS011;56133;51.012;-1.648;2022-08-21T11:20:17;6.15;;;1.25;;
53479;SDS011;56133;51.012;-1.648;2022-08-21T11:27:53;6.50;;;1.30;;
53479;SDS011;56133;51.012;-1.648;2022-08-21T11:30:22;5.50;;;1.45;;
53479;SDS011;56133;51.012;-1.648;2022-08-21T11:35:32;6.15;;;1.70;;
53479;SDS011;56133;51.012;-1.648;2022-08-21T11:54:55;7.65;;;1.63;;
53479;SDS011;56133;51.012;-1.648;2022-08-21T11:57:28;8.95;;;1.60;;
53479;SDS011;56133;51.012;-1.648;2022-08-21T12:02:35;6.65;;;1.77;;
53479;SDS011;56133;51.012;-1.648;2022-08-21T12:05:07;8.25;;;1.60;;
53479;SDS011;56133;51.012;-1.648;2022-08-21T12:07:42;4.50;;;1.27;;
53479;SDS011;56133;51.012;-1.648;2022-08-21T12:10:17;8.00;;;1.40;;
53479;SDS011;56133;51.012;-1.648;2022-08-21T12:12:46;4.72;;;1.17;;
53479;SDS011;56133;51.012;-1.648;2022-08-21T12:15:17;4.45;;;1.40;;
53479;SDS011;56133;51.012;-1.648;2022-08-21T12:23:33;5.60;;;1.50;;
53479;SDS011;56133;51.012;-1.648;2022-08-21T12:25:39;4.13;;;1.50;;
53479;SDS011;56133;51.012;-1.648;2022-08-21T12:28:08;4.93;;;1.27;;
53479;SDS011;56133;51.012;-1.648;2022-08-21T12:30:38;6.70;;;1.50;;
53479;SDS011;56133;51.012;-1.648;2022-08-21T12:36:04;6.13;;;1.88;;
53479;SDS011;56133;51.012;-1.648;2022-08-21T12:38:41;6.13;;;1.65;;
53479;SDS011;56133;51.012;-1.648;2022-08-21T12:41:28;6.22;;;1.42;;
53479;SDS011;56133;51.012;-1.648;2022-08-21T12:44:00;7.65;;;1.80;;
53479;SDS011;56133;51.012;-1.648;2022-08-21T12:46:37;8.25;;;1.60;;
53479;SDS011;56133;51.012;-1.648;2022-08-21T12:49:14;8.82;;;1.95;;
53479;SDS011;56133;51.012;-1.648;2022-08-21T12:51:48;7.55;;;1.80;;
53479;SDS011;56133;51.012;-1.648;2022-08-21T12:54:28;6.60;;;1.50;;
53479;SDS011;56133;51.012;-1.648;2022-08-21T12:56:56;7.10;;;1.85;;
53479;SDS011;56133;51.012;-1.648;2022-08-21T12:59:23;7.50;;;1.90;;
53479;SDS011;56133;51.012;-1.648;2022-08-21T13:01:49;8.30;;;1.60;;
53479;SDS011;56133;51.012;-1.648;2022-08-21T13:04:19;5.35;;;1.42;;
53479;SDS011;56133;51.012;-1.648;2022-08-21T13:07:07;5.65;;;1.48;;
53479;SDS011;56133;51.012;-1.648;2022-08-21T13:09:39;9.45;;;1.75;;
53479;SDS011;56133;51.012;-1.648;2022-08-21T13:12:11;7.63;;;1.60;;
53479;SDS011;56133;51.012;-1.648;2022-08-21T13:14:40;4.75;;;1.63;;
53479;SDS011;56133;51.012;-1.648;2022-08-21T13:17:09;7.65;;;1.40;;
53479;SDS011;56133;51.012;-1.648;2022-08-21T13:19:36;7.00;;;1.90;;
53479;SDS011;56133;51.012;-1.648;2022-08-21T13:22:02;8.85;;;1.83;;
53479;SDS011;56133;51.012;-1.648;2022-08-21T13:24:35;5.88;;;1.73;;
53479;SDS011;56133;51.012;-1.648;2022-08-21T13:27:02;7.22;;;1.83;;
53479;SDS011;56133;51.012;-1.648;2022-08-21T13:29:29;7.32;;;1.77;;
53479;SDS011;56133;51.012;-1.648;2022-08-21T13:32:01;7.25;;;1.42;;
53479;SDS011;56133;51.012;-1.648;2022-08-21T13:34:31;7.55;;;1.60;;
53479;SDS011;56133;51.012;-1.648;2022-08-21T13:37:05;6.75;;;1.80;;
53479;SDS011;56133;51.012;-1.648;2022-08-21T13:39:33;6.03;;;2.00;;
53479;SDS011;56133;51.012;-1.648;2022-08-21T13:41:59;7.03;;;1.60;;
53479;SDS011;56133;51.012;-1.648;2022-08-21T13:44:43;7.75;;;1.77;;
53479;SDS011;56133;51.012;-1.648;2022-08-21T13:49:47;8.38;;;1.77;;
53479;SDS011;56133;51.012;-1.648;2022-08-21T13:54:54;8.27;;;1.95;;
53479;SDS011;56133;51.012;-1.648;2022-08-21T13:57:26;7.60;;;2.05;;
53479;SDS011;56133;51.012;-1.648;2022-08-21T13:59:51;9.60;;;1.88;;
53479;SDS011;56133;51.012;-1.648;2022-08-21T14:02:21;5.50;;;1.70;;
53479;SDS011;56133;51.012;-1.648;2022-08-21T14:04:58;5.88;;;1.83;;
53479;SDS011;56133;51.012;-1.648;2022-08-21T14:09:59;6.53;;;1.80;;
53479;SDS011;56133;51.012;-1.648;2022-08-21T14:12:38;6.15;;;1.50;;
53479;SDS011;56133;51.012;-1.648;2022-08-21T14:15:08;6.82;;;1.80;;
53479;SDS011;56133;51.012;-1.648;2022-08-21T14:17:38;8.43;;;1.90;;
53479;SDS011;56133;51.012;-1.648;2022-08-21T14:20:07;5.95;;;1.70;;
53479;SDS011;56133;51.012;-1.648;2022-08-21T14:22:38;6.18;;;1.52;;
53479;SDS011;56133;51.012;-1.648;2022-08-21T14:27:48;7.15;;;2.00;;
53479;SDS011;56133;51.012;-1.648;2022-08-21T14:30:17;7.95;;;1.67;;
53479;SDS011;56133;51.012;-1.648;2022-08-21T14:32:45;8.38;;;1.98;;
53479;SDS011;56133;51.012;-1.648;2022-08-21T14:35:11;11.00;;;1.77;;
53479;SDS011;56133;51.012;-1.648;2022-08-21T14:37:41;6.82;;;1.50;;
53479;SDS011;56133;51.012;-1.648;2022-08-21T14:40:07;8.05;;;1.85;;
53479;SDS011;56133;51.012;-1.648;2022-08-21T14:42:33;9.18;;;1.73;;
53479;SDS011;56133;51.012;-1.648;2022-08-21T14:45:00;11.95;;;1.77;;
53479;SDS011;56133;51.012;-1.648;2022-08-21T14:47:30;8.27;;;1.83;;
53479;SDS011;56133;51.012;-1.648;2022-08-21T14:49:56;7.20;;;1.90;;
53479;SDS011;56133;51.012;-1.648;2022-08-21T14:52:21;6.63;;;1.90;;
53479;SDS011;56133;51.012;-1.648;2022-08-21T14:54:48;7.10;;;1.65;;
53479;SDS011;56133;51.012;-1.648;2022-08-21T14:57:14;8.93;;;1.90;;
53479;SDS011;56133;51.012;-1.648;2022-08-21T14:59:39;9.05;;;1.80;;
53479;SDS011;56133;51.012;-1.648;2022-08-21T15:02:06;8.75;;;2.15;;
53479;SDS011;56133;51.012;-1.648;2022-08-21T15:04:33;9.15;;;1.80;;
53479;SDS011;56133;51.012;-1.648;2022-08-21T15:06:59;7.63;;;2.15;;
53479;SDS011;56133;51.012;-1.648;2022-08-21T15:09:25;11.85;;;2.10;;
53479;SDS011;56133;51.012;-1.648;2022-08-21T15:11:55;8.13;;;1.77;;
53479;SDS011;56133;51.012;-1.648;2022-08-21T15:14:23;12.65;;;2.65;;
53479;SDS011;56133;51.012;-1.648;2022-08-21T15:16:51;12.60;;;2.30;;
53479;SDS011;56133;51.012;-1.648;2022-08-21T15:19:17;8.70;;;1.65;;
53479;SDS011;56133;51.012;-1.648;2022-08-21T15:21:43;7.47;;;1.80;;
53479;SDS011;56133;51.012;-1.648;2022-08-21T15:24:08;10.52;;;1.90;;
53479;SDS011;56133;51.012;-1.648;2022-08-21T15:26:35;5.55;;;1.73;;
53479;SDS011;56133;51.012;-1.648;2022-08-21T15:29:01;10.32;;;1.90;;
53479;SDS011;56133;51.012;-1.648;2022-08-21T15:31:27;7.47;;;1.50;;
53479;SDS011;56133;51.012;-1.648;2022-08-21T15:33:53;8.27;;;1.77;;
53479;SDS011;56133;51.012;-1.648;2022-08-21T15:36:19;6.72;;;2.08;;
53479;SDS011;56133;51.012;-1.648;2022-08-21T15:38:44;9.73;;;2.08;;
53479;SDS011;56133;51.012;-1.648;2022-08-21T15:41:10;6.93;;;1.73;;
53479;SDS011;56133;51.012;-1.648;2022-08-21T15:43:42;7.13;;;1.80;;
53479;SDS011;56133;51.012;-1.648;2022-08-21T15:46:12;7.63;;;1.60;;
53479;SDS011;56133;51.012;-1.648;2022-08-21T15:48:39;6.75;;;1.40;;
53479;SDS011;56133;51.012;-1.648;2022-08-21T15:51:05;7.95;;;1.58;;
53479;SDS011;56133;51.012;-1.648;2022-08-21T15:53:30;10.25;;;2.08;;
53479;SDS011;56133;51.012;-1.648;2022-08-21T15:56:03;9.90;;;2.25;;
53479;SDS011;56133;51.012;-1.648;2022-08-21T15:58:29;7.55;;;1.88;;
53479;SDS011;56133;51.012;-1.648;2022-08-21T16:00:55;8.23;;;1.98;;
53479;SDS011;56133;51.012;-1.648;2022-08-21T16:03:24;11.32;;;1.70;;
53479;SDS011;56133;51.012;-1.648;2022-08-21T16:05:51;9.45;;;1.75;;
53479;SDS011;56133;51.012;-1.648;2022-08-21T16:08:17;8.40;;;2.20;;